Pagina principale
METAR-TAF:

METAR-TAF

Aeroporti :

Ganja, Azerbaigian

latitudine: 40-44N, longitudine: 046-24E, altezza: 330 m

Osservazione

Il bollettino è stato emesso 16 minuti fa, alle 05:00 UTC
Vento 8 kt da ovest/sud-ovest
Temperature 3°C
Umidità 52%
Pressione 1015 hPa
Visibilità 10 km o più
Nubi sparse ad un'altezza di 10000 ft

METAR: UBBG 290500Z 24008KT 9999 SCT100 03/M06 Q1015 R30/CLRD// NOSIG

Ora: 09:16 (05:16 UTC)

Previsione

Il bollettino è stato emesso 5 ore e 42 minuti fa, alle 23:34 UTC
Previsione valida dal 29 alle 00 UTC al 29 alle 24 UTC
Vento 4 kt da direzioni variabili
Visibilità 10 km o più
Poco nuvoloso ad un'altezza di 4000 ft
Nubi sparse ad un'altezza di 10000 ft
Temporaneamente
dal 29 alle 00 UTC al 29 alle 04 UTC
Vento 6 kt da sud-ovest
Evoluzione graduale
dal 29 alle 07 UTC al 29 alle 09 UTC
Vento 12 kt da ovest

TAF: UBBG 282334Z 2900/2924 VRB04KT 9999 FEW040 SCT100 TX12/2912Z TNM01/2903Z TEMPO 2900/2904 22006KT BECMG 2907/2909 28012KT

Osservazioni e previsioni meteorologiche di più di 4000 aeroporti (messaggi METAR e TAF).

Le stazioni disponibili sono rappresentate dai dischi gialli e rossi sulla carta.

Puntare il mouse per vedere il nome della stazione.

Clicca sopra per visualizzare le osservazioni e previsioni meteorologiche.

Per cambiare la mappa : fare clic sui pulsanti verdi con una croce nera per ingrandire, il pulsante verde con un trattino per diminuire, o sulla freccia verde per le mappe adiacenti.


METAR-TAF: